createdAt,value
2019-02-21T16:46:58.433Z,30.17
2019-02-21T16:50:42.601Z,28.60
2019-02-21T16:53:09.289Z,30.17
2019-02-21T16:55:35.885Z,27.58
2019-02-21T16:58:02.457Z,28.40
2019-02-21T17:00:38.903Z,25.95
2019-02-21T17:02:57.341Z,30.52
2019-02-21T17:05:24.020Z,29.87
2019-02-21T17:07:50.604Z,31.17
2019-02-21T17:10:17.231Z,30.37
2019-02-21T17:12:43.852Z,28.07
2019-02-21T17:15:10.433Z,28.80
2019-02-21T17:17:37.066Z,29.27
2019-02-21T17:20:03.639Z,31.25
2019-02-21T17:22:30.216Z,30.45
2019-02-21T17:24:56.794Z,29.10
2019-02-21T17:27:23.371Z,29.00
2019-02-21T17:29:50.696Z,27.87
2019-02-21T17:32:17.277Z,28.85
2019-02-21T17:34:43.852Z,30.08
2019-02-21T17:37:10.438Z,31.27
2019-02-21T17:39:37.006Z,30.90
2019-02-21T17:42:03.581Z,27.87
2019-02-21T17:44:31.823Z,27.17
2019-02-21T17:46:58.646Z,27.90
2019-02-21T17:49:25.293Z,31.52
2019-02-21T17:51:53.766Z,28.57
2019-02-21T17:54:20.225Z,29.42
2019-02-21T17:56:46.826Z,31.12
2019-02-21T17:59:13.532Z,30.50
2019-02-21T18:01:40.108Z,29.05
2019-02-21T18:04:06.689Z,29.52
2019-02-21T18:06:33.269Z,26.87
2019-02-21T18:08:59.849Z,28.47
2019-02-21T18:11:26.518Z,27.48
2019-02-21T18:13:53.114Z,27.32
2019-02-21T18:16:19.694Z,27.10
2019-02-21T18:18:46.272Z,27.77
2019-02-21T18:21:12.854Z,25.08
2019-02-21T18:23:39.593Z,23.55
2019-02-21T18:26:06.183Z,22.45
2019-02-21T18:28:32.752Z,23.22
2019-02-21T18:30:59.338Z,24.57
2019-02-21T18:33:25.918Z,20.92
2019-02-21T18:35:52.689Z,22.60
2019-02-21T18:38:19.264Z,23.98
2019-02-21T18:40:45.833Z,25.12
2019-02-21T18:43:12.406Z,27.35
2019-02-21T18:45:38.979Z,24.70
2019-02-21T18:48:05.601Z,23.30
2019-02-21T18:50:38.050Z,23.02
2019-02-21T18:53:00.475Z,21.12
2019-02-21T18:55:27.129Z,20.92
2019-02-21T18:57:53.717Z,20.37
2019-02-21T19:00:20.299Z,18.32
2019-02-21T19:02:46.921Z,18.23
2019-02-21T19:05:13.500Z,19.32
2019-02-21T19:07:40.070Z,17.45
2019-02-21T19:10:06.682Z,17.45
2019-02-21T19:12:33.260Z,14.20
2019-02-21T19:14:59.918Z,14.95
2019-02-21T19:17:26.501Z,14.25
2019-02-21T19:19:53.149Z,15.95
2019-02-21T19:22:19.775Z,14.75
2019-02-21T19:24:46.353Z,15.18
2019-02-21T19:27:12.928Z,13.72
2019-02-21T19:29:39.507Z,11.53
2019-02-21T19:32:06.083Z,11.15
2019-02-21T19:34:32.807Z,13.30
2019-02-21T19:36:59.388Z,13.60
2019-02-21T19:39:25.952Z,12.05
2019-02-21T19:41:52.627Z,11.95
2019-02-21T19:44:19.201Z,11.50
2019-02-21T19:46:45.837Z,11.53
2019-02-21T19:49:12.413Z,11.80
2019-02-21T19:51:38.982Z,10.10
2019-02-21T19:54:05.567Z,10.53
2019-02-21T19:56:32.145Z,12.18
2019-02-21T19:58:58.877Z,12.58
2019-02-21T20:01:25.536Z,12.13
2019-02-21T20:03:52.140Z,10.55
2019-02-21T20:06:19.333Z,14.83
2019-02-21T20:08:46.021Z,9.93
2019-02-21T20:11:12.643Z,10.28
2019-02-21T20:13:39.222Z,10.20
2019-02-21T20:16:05.804Z,10.55
2019-02-21T20:18:32.380Z,9.23
2019-02-21T20:20:58.951Z,10.87
2019-02-21T20:23:25.521Z,9.03
2019-02-21T20:25:52.099Z,9.53
2019-02-21T20:28:18.775Z,9.20
2019-02-21T20:30:45.383Z,10.63
2019-02-21T20:33:11.945Z,8.50
2019-02-21T20:35:38.525Z,8.50
2019-02-21T20:38:05.104Z,9.38
2019-02-21T20:40:31.727Z,8.48
2019-02-21T20:42:58.306Z,9.45
2019-02-21T20:45:24.949Z,8.80
2019-02-21T20:47:51.538Z,9.30
2019-02-21T20:50:18.113Z,9.47
2019-02-21T20:52:44.730Z,9.45
2019-02-21T20:55:11.371Z,9.55
2019-02-21T20:57:38.045Z,10.38
2019-02-21T21:00:04.639Z,8.83
2019-02-21T21:02:31.270Z,8.85
2019-02-21T21:04:57.851Z,9.88
2019-02-21T21:07:25.318Z,9.60
2019-02-21T21:09:52.170Z,9.60
2019-02-21T21:12:18.799Z,9.60
2019-02-21T21:14:47.443Z,11.00
2019-02-21T21:17:14.058Z,10.43
2019-02-21T21:19:40.641Z,11.80
2019-02-21T21:22:07.217Z,13.23
2019-02-21T21:24:33.794Z,12.10
2019-02-21T21:27:00.456Z,12.10
2019-02-21T21:29:27.033Z,12.90
2019-02-21T21:31:53.611Z,10.70
2019-02-21T21:34:20.191Z,12.30
2019-02-21T21:36:46.791Z,10.18
2019-02-21T21:39:13.424Z,11.93
2019-02-21T21:41:40.004Z,10.50
2019-02-21T21:44:06.610Z,11.18
2019-02-21T21:46:33.203Z,10.85
2019-02-21T21:48:59.849Z,11.40
2019-02-21T21:51:27.379Z,11.20
2019-02-21T21:53:53.987Z,10.48
2019-02-21T21:56:21.674Z,10.35
2019-02-21T21:58:48.465Z,11.45
2019-02-21T22:01:15.039Z,13.13
2019-02-21T22:03:41.650Z,11.80
2019-02-21T22:06:08.222Z,10.63
2019-02-21T22:08:35.621Z,11.22
2019-02-21T22:11:02.195Z,11.15
2019-02-21T22:13:28.802Z,11.57
2019-02-21T22:15:55.379Z,11.73
2019-02-21T22:18:21.976Z,11.20
2019-02-21T22:20:48.562Z,11.55
2019-02-21T22:23:15.129Z,11.95
2019-02-21T22:25:41.700Z,12.17
2019-02-21T22:28:08.277Z,13.20
2019-02-21T22:30:34.858Z,11.93
2019-02-21T22:33:01.435Z,12.10
2019-02-21T22:35:28.007Z,12.37
2019-02-21T22:37:54.611Z,12.57
2019-02-21T22:40:21.239Z,12.95
2019-02-21T22:42:47.833Z,12.40
2019-02-21T22:45:14.413Z,12.63
2019-02-21T22:47:41.010Z,13.18
2019-02-21T22:50:07.576Z,13.07
2019-02-21T22:52:34.142Z,13.72
2019-02-21T22:55:09.325Z,12.55
2019-02-21T22:57:29.097Z,12.53
2019-02-21T22:59:55.678Z,13.90
2019-02-21T23:02:22.250Z,12.73
2019-02-21T23:04:48.840Z,13.85
2019-02-21T23:07:15.446Z,13.73
2019-02-21T23:09:42.040Z,14.47
2019-02-21T23:12:08.598Z,14.07
2019-02-21T23:14:35.223Z,15.03
2019-02-21T23:17:01.786Z,13.60
2019-02-21T23:19:28.373Z,13.55
2019-02-21T23:21:54.973Z,14.58
2019-02-21T23:24:21.552Z,13.78
2019-02-21T23:26:48.148Z,14.28
2019-02-21T23:29:14.714Z,15.63
2019-02-21T23:31:41.319Z,15.95
2019-02-21T23:34:07.888Z,14.50
2019-02-21T23:36:34.494Z,15.05
2019-02-21T23:39:01.075Z,16.25
2019-02-21T23:41:27.674Z,17.05
2019-02-21T23:43:54.247Z,16.48
2019-02-21T23:46:20.863Z,16.95
2019-02-21T23:48:47.435Z,17.37
2019-02-21T23:51:14.036Z,16.75
2019-02-21T23:53:40.617Z,15.80
2019-02-21T23:56:07.220Z,17.50
2019-02-21T23:58:33.790Z,17.80
